Terminal Aerodrome Forecast
Issued by NWS Twin Cities, MN

Home | Current Version | Previous Version | Graphics & Text | Print | Product List | Glossary On
Versions: 1 2 3 4 5 6 7 8 9 10 11 12
000
FTUS43 KMPX 252320
TAFEAU
TAF
KEAU 252320Z 2600/2624 35005KT P6SM SCT070
     FM260800 35007KT P6SM SCT030
     FM261800 31007KT P6SM BKN030=

USA.gov is the U.S. government's official web portal to all federal, state and local government web resources and services.